CST,Max TemperatureF,Mean TemperatureF,Min TemperatureF,Max Dew PointF,MeanDew PointF,Min DewpointF,Max Humidity, Mean Humidity, Min Humidity, Max Sea Level PressureIn, Mean Sea Level PressureIn, Min Sea Level PressureIn, Max VisibilityMiles, Mean VisibilityMiles, Min VisibilityMiles, Max Wind SpeedMPH, Mean Wind SpeedMPH, Max Gust SpeedMPH,PrecipitationIn, CloudCover, Events, WindDirDegrees
2013-12-1,61,45,28,39,33,26,92,66,39,30.13,30.02,29.88,10,9,5,7,3,10,0.00,2,,207
2013-12-2,56,43,30,41,35,28,100,78,55,29.86,29.74,29.62,10,3,0,13,6,15,0.00,5,Fog,180
2013-12-3,61,44,27,46,39,27,100,78,55,29.62,29.55,29.48,10,3,0,14,5,17,0.00,3,Fog,126
2013-12-4,44,34,23,45,28,9,100,75,50,30.14,29.76,29.51,10,7,0,32,17,38,T,7,Fog,341
2013-12-5,23,20,16,10,4,1,67,56,45,30.44,30.32,30.10,10,10,9,26,16,35,T,7,Snow,356
2013-12-6,22,16,10,9,0,-5,67,51,35,30.68,30.52,30.35,10,10,10,23,14,29,T,5,Snow,14
2013-12-7,24,15,6,6,0,-4,69,54,38,30.72,30.57,30.32,10,10,10,17,10,21,0.00,5,,77
2013-12-8,24,21,18,21,16,7,92,74,56,30.27,30.11,29.97,10,6,3,17,10,23,T,8,Snow,168
2013-12-9,18,12,6,12,4,0,88,69,49,30.45,30.38,30.26,10,10,10,16,8,20,0.00,5,,339
2013-12-10,42,25,7,20,10,0,80,54,27,30.42,30.30,30.18,10,10,9,20,9,26,0.00,0,,187
2013-12-11,33,23,12,21,10,1,81,56,31,30.67,30.55,30.26,10,10,9,23,8,31,0.00,2,,11
2013-12-12,47,29,11,24,16,4,76,55,34,30.61,30.40,30.14,10,10,10,21,13,25,0.00,2,,189
2013-12-13,46,39,31,38,34,25,92,79,65,30.11,29.88,29.75,10,8,5,25,13,31,T,7,Rain,162
2013-12-14,40,30,19,29,20,16,84,64,44,30.28,30.19,29.95,10,7,5,26,13,33,0.00,4,,333
2013-12-15,63,41,19,28,21,16,91,56,20,30.25,30.14,30.06,10,9,4,21,8,23,0.00,3,,220
2013-12-16,64,45,25,25,23,20,75,49,22,30.15,30.09,30.04,10,10,10,14,4,17,0.00,3,,255
2013-12-17,57,41,24,30,23,19,85,56,26,30.36,30.28,30.15,10,10,10,21,6,25,0.00,1,,359
2013-12-18,67,47,27,37,30,20,85,57,29,30.22,29.96,29.77,10,10,10,29,14,38,0.00,5,,189
2013-12-19,62,49,36,48,44,28,86,73,60,29.74,29.65,29.58,10,10,10,24,13,32,0.00,6,,186
2013-12-20,36,27,18,28,16,12,84,76,68,30.03,29.93,29.72,10,9,3,30,14,36,T,8,Rain-Snow,352
2013-12-21,28,26,23,27,21,14,92,77,62,29.85,29.73,29.57,10,5,0,21,11,29,0.56,8,Fog-Rain-Snow,12
2013-12-22,26,15,4,21,16,2,100,84,68,30.43,30.13,29.81,10,8,2,18,10,25,0.01,5,Fog-Snow,334
2013-12-23,18,11,4,13,10,3,96,82,67,30.67,30.58,30.43,10,8,1,17,4,21,0.03,7,Fog-Snow,34
2013-12-24,32,24,16,30,21,13,100,90,80,30.58,30.35,30.13,9,3,1,22,14,25,T,8,Snow,177
2013-12-25,41,30,18,30,25,18,100,80,60,30.43,30.39,30.31,10,8,4,14,5,16,0.00,1,,303
2013-12-26,44,31,18,32,24,16,92,77,62,30.40,30.32,30.25,10,10,7,16,6,18,0.00,0,,198
2013-12-27,48,34,19,32,26,17,96,71,46,30.39,30.32,30.23,10,10,7,10,4,13,0.00,0,,201
2013-12-28,54,41,27,36,31,25,92,71,50,30.22,30.02,29.88,10,10,10,17,10,21,0.00,2,,185
2013-12-29,42,27,11,32,9,-1,82,62,41,30.40,30.27,29.98,10,10,10,32,17,40,T,6,,357
2013-12-30,36,23,9,18,10,3,83,62,41,30.36,30.31,30.25,10,10,10,16,6,22,0.00,2,,189
2013-12-31,53,37,20,27,23,17,88,62,35,30.35,30.19,30.06,10,10,10,28,13,36,0.00,2,,184